Time;durP1;ratioP1;P1;durP2;ratioP2;P2;SDS_P1;SDS_P2;PMS_P1;PMS_P2;Temp;Humidity;BMP_temperature;BMP_pressure;BME280_temperature;BME280_humidity;BME280_pressure;Samples;Min_cycle;Max_cycle;Signal;HPM_P1;HPM_P2
2022/01/07 00:01:06;;;;;;;4.80;2.72;;;17.70;55.50;;;;;;4985336;28;20042;-55
2022/01/07 00:03:32;;;;;;;3.78;2.60;;;17.70;55.50;;;;;;4985474;28;20030;-53
2022/01/07 00:05:59;;;;;;;2.75;2.05;;;17.70;55.50;;;;;;4983655;28;20042;-56
2022/01/07 00:08:25;;;;;;;6.15;2.50;;;17.70;55.40;;;;;;4984068;28;20117;-55
2022/01/07 00:10:50;;;;;;;4.32;2.15;;;17.70;55.40;;;;;;4984976;28;20045;-56
2022/01/07 00:13:16;;;;;;;4.07;2.63;;;17.70;55.40;;;;;;4985265;28;20101;-56
2022/01/07 00:15:41;;;;;;;4.65;2.08;;;17.70;55.30;;;;;;4985213;28;20095;-56
2022/01/07 00:18:07;;;;;;;3.63;2.30;;;17.70;55.30;;;;;;4985031;28;20050;-56
2022/01/07 00:20:33;;;;;;;3.22;2.30;;;17.80;55.10;;;;;;4984261;28;20076;-57
2022/01/07 00:22:58;;;;;;;3.47;2.22;;;17.80;55.00;;;;;;4984327;28;20129;-56
2022/01/07 00:25:24;;;;;;;5.38;2.63;;;17.80;55.00;;;;;;4983939;28;20034;-55
2022/01/07 00:27:50;;;;;;;3.22;2.13;;;17.80;54.80;;;;;;4983678;28;20058;-57
2022/01/07 00:30:16;;;;;;;3.33;2.17;;;17.80;54.70;;;;;;4984338;28;20144;-54
2022/01/07 00:32:41;;;;;;;4.18;1.75;;;17.80;54.60;;;;;;4984171;28;20081;-56
2022/01/07 00:35:08;;;;;;;3.38;1.90;;;17.80;54.70;;;;;;4984873;28;20041;-56
2022/01/07 00:37:33;;;;;;;4.85;2.30;;;17.80;54.60;;;;;;4983309;28;20619;-56
2022/01/07 00:39:59;;;;;;;3.40;2.40;;;17.80;54.60;;;;;;4983918;28;20069;-56
2022/01/07 00:42:24;;;;;;;4.03;2.22;;;17.80;55.00;;;;;;4983826;28;20365;-57
2022/01/07 00:44:50;;;;;;;2.58;1.83;;;17.80;54.40;;;;;;4984558;28;20530;-56
2022/01/07 00:47:16;;;;;;;6.65;2.30;;;17.80;54.50;;;;;;4984851;28;20034;-56
2022/01/07 00:49:42;;;;;;;3.22;1.95;;;17.80;54.30;;;;;;4984182;28;20073;-55
2022/01/07 00:52:08;;;;;;;2.30;1.80;;;17.80;54.30;;;;;;4984551;28;20384;-57
2022/01/07 00:54:33;;;;;;;3.50;1.75;;;17.80;54.20;;;;;;4984807;28;20085;-55
2022/01/07 00:56:59;;;;;;;3.60;1.80;;;17.80;54.10;;;;;;4983793;28;20117;-56
2022/01/07 00:59:24;;;;;;;2.33;1.60;;;17.80;54.10;;;;;;4984090;28;20027;-55
2022/01/07 01:01:50;;;;;;;4.90;1.95;;;17.80;54.10;;;;;;4984804;28;20388;-54
2022/01/07 01:04:15;;;;;;;2.80;1.88;;;17.80;54.10;;;;;;4984011;28;20038;-60
2022/01/07 01:06:41;;;;;;;2.25;1.45;;;17.80;54.00;;;;;;4984422;28;20400;-56
2022/01/07 01:09:07;;;;;;;2.53;1.58;;;17.80;54.00;;;;;;4983791;28;20038;-56
2022/01/07 01:11:33;;;;;;;2.75;1.85;;;17.80;53.90;;;;;;4981492;28;20760;-54
2022/01/07 01:13:59;;;;;;;2.78;1.58;;;17.80;53.90;;;;;;4984651;28;20030;-54
2022/01/07 01:16:24;;;;;;;2.13;1.65;;;17.70;53.80;;;;;;4983009;28;20132;-57
2022/01/07 01:18:50;;;;;;;3.30;1.52;;;17.70;53.80;;;;;;4984356;28;20399;-56
2022/01/07 01:21:15;;;;;;;2.58;1.33;;;17.70;53.80;;;;;;4983795;28;20062;-56
2022/01/07 01:23:44;;;;;;;3.67;1.50;;;17.70;53.70;;;;;;4984403;28;20034;-56
2022/01/07 01:26:10;;;;;;;4.47;1.33;;;17.70;53.80;;;;;;4982377;28;20030;-54
2022/01/07 01:28:36;;;;;;;2.95;1.90;;;17.70;53.80;;;;;;4982624;28;20038;-57
2022/01/07 01:31:01;;;;;;;2.17;1.20;;;17.70;53.80;;;;;;4983177;28;20031;-56
2022/01/07 01:33:27;;;;;;;2.38;1.50;;;17.70;53.70;;;;;;4983498;28;20041;-55
2022/01/07 01:35:52;;;;;;;2.17;1.60;;;17.70;53.70;;;;;;4981623;28;20030;-63
2022/01/07 01:38:18;;;;;;;3.33;1.45;;;17.70;53.70;;;;;;4983436;28;20038;-56
2022/01/07 01:40:43;;;;;;;1.80;1.40;;;17.70;53.60;;;;;;4981474;28;20660;-53
2022/01/07 01:43:09;;;;;;;1.80;1.25;;;17.70;53.70;;;;;;4983218;28;20121;-54
2022/01/07 01:45:34;;;;;;;1.58;1.27;;;17.70;53.70;;;;;;4981775;28;20033;-54
2022/01/07 01:48:00;;;;;;;3.00;1.70;;;17.70;53.60;;;;;;4983487;28;20049;-54
2022/01/07 01:50:25;;;;;;;1.77;1.40;;;17.60;53.50;;;;;;4982243;28;20068;-54
2022/01/07 01:52:53;;;;;;;2.95;1.60;;;17.60;53.50;;;;;;4982579;28;20038;-54
2022/01/07 01:55:20;;;;;;;1.98;1.23;;;17.60;53.50;;;;;;4980588;28;20399;-55
2022/01/07 01:57:45;;;;;;;1.80;1.00;;;17.60;53.60;;;;;;4983874;28;20447;-54
2022/01/07 02:00:11;;;;;;;1.60;1.40;;;17.60;53.50;;;;;;4981732;28;20040;-56
2022/01/07 02:02:37;;;;;;;3.03;1.13;;;17.60;53.50;;;;;;4983432;28;20038;-58
2022/01/07 02:05:03;;;;;;;1.90;1.05;;;17.60;53.50;;;;;;4982810;28;20050;-55
2022/01/07 02:07:28;;;;;;;1.60;1.10;;;17.70;53.60;;;;;;4980623;28;20031;-53
2022/01/07 02:09:54;;;;;;;1.60;1.20;;;17.60;53.60;;;;;;4981460;28;20027;-54
2022/01/07 02:12:20;;;;;;;1.65;1.05;;;17.60;53.50;;;;;;4982306;28;20046;-55
2022/01/07 02:14:53;;;;;;;2.22;1.00;;;17.60;53.60;;;;;;4982939;28;20679;-53
2022/01/07 02:17:19;;;;;;;2.13;1.30;;;17.60;53.70;;;;;;4983059;28;20030;-53
2022/01/07 02:19:44;;;;;;;1.75;1.10;;;17.60;53.70;;;;;;4982404;28;20506;-53
2022/01/07 02:22:11;;;;;;;2.13;1.20;;;17.50;53.70;;;;;;4982263;28;20038;-55
2022/01/07 02:24:37;;;;;;;1.88;1.10;;;17.50;53.90;;;;;;4982100;28;20037;-54
2022/01/07 02:27:03;;;;;;;1.70;1.10;;;17.50;53.90;;;;;;4980377;28;20018;-57
2022/01/07 02:29:28;;;;;;;2.47;1.27;;;17.40;53.80;;;;;;4982374;28;20034;-56
2022/01/07 02:31:54;;;;;;;2.08;1.00;;;17.40;53.90;;;;;;4981372;28;20034;-55
2022/01/07 02:34:19;;;;;;;3.13;1.05;;;17.30;53.80;;;;;;4981967;28;20026;-53
2022/01/07 02:36:45;;;;;;;2.63;1.23;;;17.30;53.90;;;;;;4982403;28;20113;-54
2022/01/07 02:39:10;;;;;;;2.10;1.20;;;17.30;54.00;;;;;;4982509;28;20038;-55
2022/01/07 02:41:36;;;;;;;2.60;0.90;;;17.20;54.10;;;;;;4981214;28;20058;-56
2022/01/07 02:44:01;;;;;;;2.80;0.93;;;17.20;54.10;;;;;;4981677;28;20042;-55
2022/01/07 02:46:27;;;;;;;1.55;0.93;;;17.20;54.20;;;;;;4980303;28;20399;-56
2022/01/07 02:48:52;;;;;;;1.67;1.10;;;17.10;54.20;;;;;;4982314;28;20030;-53
2022/01/07 02:51:18;;;;;;;1.33;0.88;;;17.10;54.30;;;;;;4981043;28;20034;-55
2022/01/07 02:53:43;;;;;;;1.50;1.00;;;17.10;54.40;;;;;;4982665;28;20030;-54
2022/01/07 02:56:11;;;;;;;2.67;0.90;;;17.10;54.40;;;;;;4982193;28;20085;-54
2022/01/07 02:58:37;;;;;;;1.38;1.00;;;17.00;54.40;;;;;;4980741;28;20104;-55
2022/01/07 03:01:02;;;;;;;2.67;1.00;;;17.00;54.50;;;;;;4987400;28;20117;-53
2022/01/07 03:03:27;;;;;;;2.42;1.10;;;17.00;54.60;;;;;;4977037;28;20371;-55
2022/01/07 03:05:53;;;;;;;2.10;0.93;;;16.90;54.60;;;;;;4983251;28;20230;-57
2022/01/07 03:08:18;;;;;;;2.13;1.00;;;16.90;54.60;;;;;;4982346;28;20381;-57
2022/01/07 03:10:44;;;;;;;1.15;1.00;;;16.90;54.70;;;;;;4982066;28;20485;-58
2022/01/07 03:13:09;;;;;;;2.38;1.10;;;16.90;54.70;;;;;;4982004;28;20042;-56
2022/01/07 03:15:37;;;;;;;2.15;1.10;;;16.90;54.70;;;;;;4982399;28;20035;-57
2022/01/07 03:18:02;;;;;;;1.67;0.90;;;16.80;54.70;;;;;;4948499;28;20769;-56
2022/01/07 03:20:28;;;;;;;2.97;0.77;;;16.80;54.70;;;;;;4982512;28;20038;-55
2022/01/07 03:22:53;;;;;;;2.25;1.00;;;16.80;54.80;;;;;;4982582;28;20038;-56
2022/01/07 03:25:19;;;;;;;1.60;0.80;;;16.80;54.70;;;;;;4981939;28;21404;-57
2022/01/07 03:27:44;;;;;;;2.03;1.00;;;16.80;54.70;;;;;;4982158;28;20158;-56
2022/01/07 03:30:11;;;;;;;2.40;0.93;;;16.90;54.60;;;;;;4982526;28;20611;-54
2022/01/07 03:32:36;;;;;;;1.58;0.90;;;17.00;54.50;;;;;;4978249;28;20042;-54
2022/01/07 03:35:03;;;;;;;1.52;1.00;;;17.10;54.40;;;;;;4981427;28;20124;-57
2022/01/07 03:37:28;;;;;;;1.52;0.95;;;17.20;54.20;;;;;;4981849;28;20035;-55
2022/01/07 03:39:54;;;;;;;1.38;0.65;;;17.30;54.10;;;;;;4980067;28;20033;-59
2022/01/07 03:42:19;;;;;;;2.35;0.80;;;17.30;53.90;;;;;;4989232;28;20027;-56
2022/01/07 03:44:45;;;;;;;1.05;0.60;;;17.40;54.00;;;;;;4980863;28;20027;-54
2022/01/07 03:47:10;;;;;;;2.28;0.90;;;17.40;54.00;;;;;;4981671;28;20037;-55
2022/01/07 03:49:36;;;;;;;2.72;0.85;;;17.30;54.10;;;;;;4981904;28;20027;-56
2022/01/07 03:52:01;;;;;;;1.55;0.88;;;17.40;54.30;;;;;;4982595;28;20031;-54
2022/01/07 03:54:27;;;;;;;2.50;0.80;;;17.40;54.20;;;;;;4982784;28;20110;-56
2022/01/07 03:56:53;;;;;;;1.35;0.90;;;17.40;54.30;;;;;;4981067;28;20027;-57
2022/01/07 03:59:18;;;;;;;1.25;0.80;;;17.50;54.30;;;;;;4980482;28;20301;-57
2022/01/07 04:01:44;;;;;;;1.58;0.82;;;17.50;54.30;;;;;;4982889;28;20450;-55
2022/01/07 04:04:09;;;;;;;1.15;0.55;;;17.50;54.30;;;;;;4984166;28;20102;-57
2022/01/07 04:06:34;;;;;;;1.88;0.90;;;17.60;54.40;;;;;;4983668;28;20030;-55
2022/01/07 04:09:00;;;;;;;2.05;0.75;;;17.60;54.30;;;;;;4985109;28;20038;-57
2022/01/07 04:11:25;;;;;;;2.20;1.08;;;17.60;54.30;;;;;;4985175;28;20476;-57
2022/01/07 04:13:51;;;;;;;1.85;0.85;;;17.60;54.40;;;;;;4986422;28;20097;-56
2022/01/07 04:16:16;;;;;;;2.05;0.80;;;17.70;54.30;;;;;;4985057;28;20054;-56
2022/01/07 04:18:42;;;;;;;1.90;0.90;;;17.70;54.30;;;;;;4985314;28;20034;-57
2022/01/07 04:21:08;;;;;;;3.78;1.05;;;17.70;54.40;;;;;;4984949;28;20109;-54
2022/01/07 04:23:33;;;;;;;1.83;0.77;;;17.70;54.30;;;;;;4985140;28;20528;-56
2022/01/07 04:25:58;;;;;;;3.47;0.90;;;17.70;54.40;;;;;;4983279;28;20185;-54
2022/01/07 04:28:24;;;;;;;2.08;0.90;;;17.70;54.30;;;;;;4983664;28;20037;-61
2022/01/07 04:30:49;;;;;;;4.03;0.85;;;17.70;54.30;;;;;;4985400;28;20062;-57
2022/01/07 04:33:21;;;;;;;1.67;0.90;;;17.70;54.40;;;;;;4984118;28;20140;-56
2022/01/07 04:35:47;;;;;;;1.23;0.88;;;17.70;54.40;;;;;;4985242;28;20050;-54
2022/01/07 04:38:12;;;;;;;2.90;0.70;;;17.70;54.40;;;;;;4983869;28;20117;-55
2022/01/07 04:40:38;;;;;;;1.10;1.00;;;17.70;54.30;;;;;;4983485;28;20026;-55
2022/01/07 04:43:04;;;;;;;1.45;0.63;;;17.70;54.30;;;;;;4981685;28;20042;-56
2022/01/07 04:45:29;;;;;;;0.80;0.60;;;17.70;54.40;;;;;;4983336;28;20404;-54
2022/01/07 04:47:55;;;;;;;1.92;0.88;;;17.70;54.40;;;;;;4981825;28;20030;-54
2022/01/07 04:50:21;;;;;;;0.77;0.60;;;17.60;54.30;;;;;;4983409;28;20026;-55
2022/01/07 04:52:46;;;;;;;2.00;0.73;;;17.60;54.10;;;;;;4985144;28;20034;-54
2022/01/07 04:55:14;;;;;;;1.95;0.68;;;17.60;54.20;;;;;;4984511;28;20607;-54
2022/01/07 04:57:39;;;;;;;1.42;0.68;;;17.60;54.10;;;;;;4984792;28;20033;-55
2022/01/07 05:00:05;;;;;;;1.23;0.75;;;17.60;54.20;;;;;;4983282;28;20030;-54
2022/01/07 05:02:31;;;;;;;1.23;0.68;;;17.60;54.10;;;;;;4983457;28;20092;-54
2022/01/07 05:04:56;;;;;;;1.30;0.70;;;17.60;54.10;;;;;;4983534;28;20117;-56
2022/01/07 05:07:22;;;;;;;1.70;0.63;;;17.60;54.00;;;;;;4984649;28;20084;-56
2022/01/07 05:09:47;;;;;;;1.40;0.60;;;17.60;54.00;;;;;;4983655;28;20027;-55
2022/01/07 05:12:13;;;;;;;1.77;0.90;;;17.60;53.90;;;;;;4984178;28;20665;-55
2022/01/07 05:14:38;;;;;;;1.90;0.70;;;17.60;53.80;;;;;;4983894;28;20041;-56
2022/01/07 05:17:04;;;;;;;1.83;0.90;;;17.60;53.60;;;;;;4983750;28;20034;-56
2022/01/07 05:19:29;;;;;;;1.60;0.90;;;17.60;53.30;;;;;;4981164;28;20110;-55
2022/01/07 05:21:55;;;;;;;1.85;0.70;;;17.60;53.20;;;;;;4983506;28;20441;-56
2022/01/07 05:24:20;;;;;;;1.48;0.82;;;17.70;53.20;;;;;;4983501;28;20034;-54
2022/01/07 05:26:46;;;;;;;1.30;0.70;;;17.70;53.50;;;;;;4982443;28;20030;-56
2022/01/07 05:29:11;;;;;;;1.50;0.70;;;17.70;53.20;;;;;;4983130;28;20053;-56
2022/01/07 05:31:37;;;;;;;1.92;0.88;;;17.60;53.20;;;;;;4983890;28;20085;-55
2022/01/07 05:34:02;;;;;;;2.30;0.95;;;17.60;53.30;;;;;;4983238;28;20042;-56
2022/01/07 05:36:28;;;;;;;1.67;0.63;;;17.70;53.20;;;;;;4983981;28;20308;-56
2022/01/07 05:38:53;;;;;;;2.33;1.00;;;17.60;53.10;;;;;;4983538;28;20030;-55
2022/01/07 05:41:19;;;;;;;2.33;0.98;;;17.60;53.20;;;;;;4982267;28;20117;-54
2022/01/07 05:43:45;;;;;;;1.35;0.70;;;17.60;53.10;;;;;;4984133;28;20042;-55
2022/01/07 05:46:14;;;;;;;3.15;0.73;;;17.60;53.20;;;;;;4981902;28;20206;-55
2022/01/07 05:48:40;;;;;;;2.10;0.85;;;17.60;53.20;;;;;;4981538;28;20026;-55
2022/01/07 05:51:07;;;;;;;1.27;0.68;;;17.60;53.20;;;;;;4983368;28;20030;-56
2022/01/07 05:53:32;;;;;;;1.73;0.75;;;17.60;53.20;;;;;;4983556;28;20105;-57
2022/01/07 05:55:58;;;;;;;2.47;0.80;;;17.60;53.30;;;;;;4983807;28;20042;-57
2022/01/07 05:58:23;;;;;;;1.20;0.70;;;17.60;53.20;;;;;;4982356;28;20039;-56
2022/01/07 06:00:49;;;;;;;1.35;0.68;;;17.50;53.20;;;;;;4983367;28;20034;-57
2022/01/07 06:03:14;;;;;;;2.97;0.82;;;17.60;53.40;;;;;;4983255;28;20260;-57
2022/01/07 06:05:40;;;;;;;3.33;1.00;;;17.50;53.40;;;;;;4982760;28;20023;-56
2022/01/07 06:08:05;;;;;;;1.83;0.80;;;17.50;53.30;;;;;;4982777;28;20301;-55
2022/01/07 06:10:31;;;;;;;2.60;0.95;;;17.50;53.40;;;;;;4982542;28;20391;-54
2022/01/07 06:12:56;;;;;;;3.38;0.80;;;17.50;53.30;;;;;;4981272;28;20037;-57
2022/01/07 06:15:22;;;;;;;1.13;0.80;;;17.50;53.40;;;;;;4982434;28;20065;-55
2022/01/07 06:17:47;;;;;;;1.40;0.73;;;17.50;53.50;;;;;;4982686;28;20505;-53
2022/01/07 06:20:13;;;;;;;3.72;1.00;;;17.50;53.40;;;;;;4983049;28;20120;-53
2022/01/07 06:22:38;;;;;;;2.33;0.88;;;17.40;53.40;;;;;;4981358;28;20035;-56
2022/01/07 06:25:04;;;;;;;4.10;0.70;;;17.40;53.40;;;;;;4982543;28;20172;-55
2022/01/07 06:27:30;;;;;;;4.85;0.90;;;17.40;53.40;;;;;;4981648;28;20084;-56
2022/01/07 06:29:57;;;;;;;9.57;3.70;;;17.40;53.70;;;;;;4982589;28;20443;-57
2022/01/07 06:32:23;;;;;;;7.20;2.80;;;17.40;53.70;;;;;;4983421;28;20157;-57
2022/01/07 06:34:49;;;;;;;11.15;3.40;;;17.40;53.80;;;;;;4982660;28;20042;-55
2022/01/07 06:37:14;;;;;;;9.13;3.35;;;17.40;53.80;;;;;;4978482;28;20096;-56
2022/01/07 06:39:40;;;;;;;9.35;3.50;;;17.40;53.90;;;;;;4977571;28;20023;-54
2022/01/07 06:42:05;;;;;;;9.90;3.33;;;17.40;53.90;;;;;;4980567;28;20030;-56
2022/01/07 06:44:32;;;;;;;6.70;3.85;;;17.40;53.80;;;;;;4982518;28;20403;-54
2022/01/07 06:46:58;;;;;;;7.78;3.83;;;17.40;53.90;;;;;;4983184;28;20022;-56
2022/01/07 06:49:23;;;;;;;7.68;3.55;;;17.40;53.80;;;;;;4982148;28;20423;-54
2022/01/07 06:51:50;;;;;;;9.57;3.75;;;17.40;53.80;;;;;;4982237;28;20118;-53
2022/01/07 06:54:16;;;;;;;14.15;3.65;;;17.40;53.60;;;;;;4981836;28;20862;-58
2022/01/07 06:56:42;;;;;;;10.23;3.72;;;17.40;53.80;;;;;;4982879;28;20038;-57
2022/01/07 06:59:07;;;;;;;5.68;3.55;;;17.40;53.80;;;;;;4980441;28;20530;-56
2022/01/07 07:01:33;;;;;;;8.93;3.05;;;17.40;53.80;;;;;;4981544;28;20053;-56
2022/01/07 07:03:58;;;;;;;9.52;3.22;;;17.40;54.50;;;;;;4983283;28;20065;-56
2022/01/07 07:06:24;;;;;;;7.20;3.45;;;17.40;53.90;;;;;;4982674;28;20049;-55
2022/01/07 07:08:49;;;;;;;9.23;3.58;;;17.40;53.90;;;;;;4981534;28;20033;-57
2022/01/07 07:11:15;;;;;;;10.77;3.38;;;17.40;53.90;;;;;;4981953;28;20260;-54
2022/01/07 07:13:40;;;;;;;10.85;4.18;;;17.50;53.90;;;;;;4982364;28;20030;-56
2022/01/07 07:16:06;;;;;;;11.70;6.07;;;17.50;53.90;;;;;;4979201;28;20037;-55
2022/01/07 07:18:31;;;;;;;18.83;8.50;;;17.50;54.00;;;;;;4976114;28;20034;-57
2022/01/07 07:20:58;;;;;;;26.25;10.00;;;17.50;54.30;;;;;;4975504;28;20054;-56
2022/01/07 07:23:23;;;;;;;26.70;10.73;;;17.50;54.40;;;;;;4983967;28;20030;-54
2022/01/07 07:25:49;;;;;;;29.75;11.55;;;17.60;54.70;;;;;;4982316;28;20432;-53
2022/01/07 07:28:14;;;;;;;27.50;11.00;;;17.60;54.90;;;;;;4980605;28;20046;-54
2022/01/07 07:30:42;;;;;;;28.30;10.85;;;17.60;54.90;;;;;;4981510;28;20050;-54
2022/01/07 07:33:31;;;;;;;27.23;10.55;;;17.60;55.10;;;;;;4981975;28;20033;-57
2022/01/07 07:38:42;;;;;;;19.08;8.77;;;17.60;55.30;;;;;;4984899;28;20056;-55
2022/01/07 07:41:07;;;;;;;25.65;9.20;;;17.60;55.30;;;;;;4986249;28;20447;-54
2022/01/07 07:43:34;;;;;;;20.20;9.07;;;17.50;56.00;;;;;;4986370;28;20080;-56
2022/01/07 07:45:59;;;;;;;16.98;8.38;;;17.50;56.00;;;;;;4986110;28;20035;-55
2022/01/07 07:48:25;;;;;;;21.10;8.52;;;17.50;55.40;;;;;;4986260;28;20053;-55
2022/01/07 07:50:50;;;;;;;20.60;9.02;;;17.50;55.40;;;;;;4986197;28;20540;-57
2022/01/07 07:53:16;;;;;;;21.80;8.80;;;17.40;55.30;;;;;;4985645;28;20049;-53
2022/01/07 07:55:41;;;;;;;17.25;7.78;;;17.40;55.30;;;;;;4986436;28;20027;-56
2022/01/07 07:58:07;;;;;;;16.95;6.93;;;17.40;55.30;;;;;;4984256;28;20077;-56
2022/01/07 08:00:32;;;;;;;22.15;8.57;;;17.30;55.30;;;;;;4984224;28;20041;-57
2022/01/07 08:02:58;;;;;;;18.73;8.57;;;17.30;55.30;;;;;;4984623;28;20034;-54
2022/01/07 08:05:24;;;;;;;14.88;7.93;;;17.30;55.30;;;;;;4986210;28;20509;-54
2022/01/07 08:07:49;;;;;;;15.93;6.93;;;17.30;55.20;;;;;;4985474;28;20030;-55
2022/01/07 08:10:21;;;;;;;16.13;6.75;;;17.30;55.30;;;;;;4984874;28;20080;-53
2022/01/07 08:12:54;;;;;;;14.57;6.30;;;17.30;55.20;;;;;;4985056;28;20027;-55
2022/01/07 08:18:04;;;;;;;16.90;8.48;;;17.20;55.30;;;;;;4984722;28;20689;-54
2022/01/07 08:20:29;;;;;;;21.85;8.60;;;17.20;55.20;;;;;;4984881;28;20038;-54
2022/01/07 08:22:55;;;;;;;14.40;7.82;;;17.20;55.10;;;;;;4986799;28;20643;-53
2022/01/07 08:25:21;;;;;;;20.25;7.53;;;17.20;55.00;;;;;;4984066;28;20057;-54
2022/01/07 08:27:47;;;;;;;16.95;6.80;;;17.10;54.80;;;;;;4986097;28;20034;-53
2022/01/07 08:30:20;;;;;;;20.65;7.82;;;17.10;54.80;;;;;;4984097;28;20027;-56
2022/01/07 08:35:30;;;;;;;15.88;6.75;;;17.10;54.80;;;;;;4984797;28;20600;-54
2022/01/07 08:37:55;;;;;;;14.82;7.40;;;17.10;54.80;;;;;;4985363;28;20030;-53
2022/01/07 08:40:21;;;;;;;16.20;7.45;;;17.10;54.70;;;;;;4984920;28;20019;-53
2022/01/07 08:42:46;;;;;;;16.02;6.60;;;17.10;54.70;;;;;;4985668;28;20259;-55
2022/01/07 08:45:12;;;;;;;12.00;6.07;;;17.10;54.60;;;;;;4985335;28;20050;-54
2022/01/07 08:47:37;;;;;;;12.65;5.80;;;17.10;54.60;;;;;;4984714;28;20485;-53
2022/01/07 08:50:03;;;;;;;12.32;5.85;;;17.10;54.60;;;;;;4984470;28;20023;-56
2022/01/07 08:52:29;;;;;;;11.93;6.03;;;17.10;54.50;;;;;;4984583;28;20075;-53
2022/01/07 08:54:54;;;;;;;11.82;5.45;;;17.20;54.50;;;;;;4985783;28;20073;-54
2022/01/07 08:57:20;;;;;;;11.63;5.38;;;17.20;54.40;;;;;;4985285;28;20705;-56
2022/01/07 08:59:46;;;;;;;10.07;4.97;;;17.20;54.40;;;;;;4984606;28;20034;-54
2022/01/07 09:02:11;;;;;;;11.80;5.85;;;17.20;54.30;;;;;;4984629;28;20026;-54
2022/01/07 09:04:37;;;;;;;10.57;5.30;;;17.20;54.30;;;;;;4984472;28;20037;-55
2022/01/07 09:07:03;;;;;;;10.77;5.53;;;17.30;54.40;;;;;;4985008;28;20054;-53
2022/01/07 09:09:28;;;;;;;12.43;5.45;;;17.30;54.40;;;;;;4982189;28;20334;-56
2022/01/07 09:11:54;;;;;;;9.77;4.70;;;17.20;54.60;;;;;;4985304;28;20034;-55
2022/01/07 09:14:19;;;;;;;8.38;4.70;;;17.20;54.80;;;;;;4983336;28;20029;-55
2022/01/07 09:16:45;;;;;;;8.77;4.78;;;17.20;55.00;;;;;;4985458;28;20049;-54
2022/01/07 09:19:10;;;;;;;7.97;4.15;;;17.20;55.20;;;;;;4983793;28;20142;-55
2022/01/07 09:21:36;;;;;;;9.52;5.20;;;17.20;55.30;;;;;;4984807;28;20140;-54
2022/01/07 09:24:01;;;;;;;7.45;3.97;;;17.30;55.30;;;;;;4979099;28;20038;-54
2022/01/07 09:26:27;;;;;;;10.70;4.82;;;17.20;55.30;;;;;;4987433;28;20674;-54
2022/01/07 09:28:52;;;;;;;7.93;4.43;;;17.30;55.30;;;;;;4985283;28;20151;-53
2022/01/07 09:31:18;;;;;;;7.68;3.95;;;17.30;55.30;;;;;;4985908;28;20108;-54
2022/01/07 09:33:43;;;;;;;7.25;3.72;;;17.30;55.20;;;;;;4986332;28;20039;-53
2022/01/07 09:36:09;;;;;;;8.27;4.15;;;17.30;55.20;;;;;;4986791;28;20030;-54
2022/01/07 09:38:34;;;;;;;5.78;3.92;;;17.30;55.30;;;;;;4986255;28;20440;-55
2022/01/07 09:41:00;;;;;;;8.68;3.67;;;17.30;55.30;;;;;;4987099;28;20026;-56
2022/01/07 09:43:25;;;;;;;6.32;3.75;;;17.40;55.40;;;;;;4986765;28;20035;-56
2022/01/07 09:45:51;;;;;;;9.85;3.83;;;17.40;55.50;;;;;;4986784;28;20431;-57
2022/01/07 09:48:17;;;;;;;7.95;4.13;;;17.40;55.50;;;;;;4989325;28;20129;-54
2022/01/07 09:50:42;;;;;;;7.28;3.67;;;17.40;55.50;;;;;;4984834;28;20484;-56
2022/01/07 09:53:11;;;;;;;5.53;3.50;;;17.40;55.50;;;;;;4983528;28;20397;-54
2022/01/07 09:55:36;;;;;;;7.20;3.47;;;17.40;55.50;;;;;;4986587;28;20077;-54
2022/01/07 09:58:02;;;;;;;6.10;3.15;;;17.50;55.50;;;;;;4984489;28;20026;-53
2022/01/07 10:00:37;;;;;;;7.05;3.33;;;17.50;55.50;;;;;;4979102;28;20411;-63
2022/01/07 10:03:04;;;;;;;5.53;3.10;;;17.50;55.40;;;;;;4981536;28;20598;-54
2022/01/07 10:05:30;;;;;;;9.15;3.85;;;17.50;55.30;;;;;;4986645;28;20030;-54
2022/01/07 10:07:56;;;;;;;8.57;3.03;;;17.50;55.30;;;;;;4986330;28;20061;-54
2022/01/07 10:10:21;;;;;;;8.23;3.20;;;17.50;55.30;;;;;;4986214;28;20053;-53
2022/01/07 10:13:04;;;;;;;5.72;3.10;;;17.50;55.20;;;;;;4985159;28;20062;-55
2022/01/07 10:15:30;;;;;;;5.38;2.83;;;17.60;55.20;;;;;;4980910;28;20041;-55
2022/01/07 10:18:03;;;;;;;6.55;2.67;;;17.60;55.20;;;;;;4992514;23;20082;-55
2022/01/07 10:20:40;;;;;;;4.20;2.90;;;17.50;55.20;;;;;;4992525;28;20606;-55
2022/01/07 10:23:06;;;;;;;4.18;2.55;;;17.60;55.10;;;;;;4996581;28;20042;-52
2022/01/07 10:25:33;;;;;;;4.30;2.70;;;17.60;55.10;;;;;;5003707;28;20026;-55
2022/01/07 10:28:12;;;;;;;4.65;2.70;;;17.60;55.00;;;;;;5000824;28;20067;-53
2022/01/07 10:30:52;;;;;;;7.32;2.75;;;17.60;54.90;;;;;;5000999;28;20034;-55
2022/01/07 10:33:32;;;;;;;7.10;2.50;;;17.60;54.90;;;;;;4995787;28;20053;-58
2022/01/07 10:36:06;;;;;;;3.47;2.03;;;17.60;54.90;;;;;;5003603;28;20036;-58
2022/01/07 10:38:32;;;;;;;4.40;3.38;;;17.60;55.00;;;;;;5004607;28;20029;-57
2022/01/07 10:41:00;;;;;;;4.55;2.67;;;17.50;54.80;;;;;;5005698;28;20113;-58
2022/01/07 10:43:32;;;;;;;3.72;1.95;;;17.50;54.80;;;;;;5005756;28;20052;-58
2022/01/07 10:46:11;;;;;;;4.20;2.25;;;17.50;54.80;;;;;;5001176;28;20686;-57
2022/01/07 10:48:37;;;;;;;3.03;2.10;;;17.50;54.90;;;;;;5005232;28;20527;-55
2022/01/07 10:51:06;;;;;;;4.53;1.90;;;17.50;54.80;;;;;;5005631;28;20044;-51
2022/01/07 10:53:32;;;;;;;4.88;2.38;;;17.50;54.90;;;;;;5006512;28;20061;-52
2022/01/07 10:56:12;;;;;;;4.40;2.60;;;17.50;54.80;;;;;;5006900;28;20030;-52
2022/01/07 10:58:46;;;;;;;4.68;2.60;;;17.50;54.80;;;;;;5002842;28;20290;-52
2022/01/07 11:01:21;;;;;;;4.88;2.20;;;17.50;54.70;;;;;;5004681;28;20033;-52
2022/01/07 11:03:57;;;;;;;4.95;2.67;;;17.50;54.80;;;;;;5003800;28;20045;-55
2022/01/07 11:06:23;;;;;;;3.88;2.10;;;17.50;54.60;;;;;;5000779;28;20510;-52
2022/01/07 11:08:52;;;;;;;6.57;3.10;;;17.50;54.60;;;;;;5004143;28;20064;-56
2022/01/07 11:11:18;;;;;;;7.00;3.17;;;17.50;54.70;;;;;;5006008;28;20037;-55
2022/01/07 11:13:43;;;;;;;5.88;3.42;;;17.50;54.80;;;;;;5009163;28;20037;-52
2022/01/07 11:16:09;;;;;;;7.05;3.20;;;17.50;54.80;;;;;;5007965;28;20026;-57
2022/01/07 11:18:41;;;;;;;6.47;3.67;;;17.50;54.80;;;;;;5007793;28;20100;-53
2022/01/07 11:21:07;;;;;;;5.00;3.20;;;17.50;54.80;;;;;;4991516;28;20030;-52
2022/01/07 11:23:33;;;;;;;21.88;11.13;;;17.50;54.70;;;;;;5008135;28;20034;-59
2022/01/07 11:25:59;;;;;;;57.45;27.75;;;17.50;55.40;;;;;;5008215;28;20092;-54
2022/01/07 11:28:24;;;;;;;66.97;31.17;;;17.50;57.70;;;;;;5006114;28;20499;-53
2022/01/07 11:30:50;;;;;;;76.75;32.38;;;17.50;58.00;;;;;;5005948;28;20041;-53
2022/01/07 11:33:18;;;;;;;64.13;31.33;;;17.50;58.30;;;;;;5007498;28;20026;-58
2022/01/07 11:35:45;;;;;;;61.38;28.60;;;17.50;58.30;;;;;;5007440;28;20030;-54
2022/01/07 11:38:15;;;;;;;64.68;29.10;;;17.50;58.10;;;;;;5005666;28;20113;-55
2022/01/07 11:40:41;;;;;;;61.85;28.13;;;17.50;58.40;;;;;;5006923;28;20439;-52
2022/01/07 11:43:19;;;;;;;52.17;25.52;;;17.50;58.60;;;;;;5008382;28;20041;-54
2022/01/07 11:45:45;;;;;;;57.90;27.83;;;17.50;58.60;;;;;;5007892;28;20084;-57
2022/01/07 11:48:20;;;;;;;50.88;25.10;;;17.50;58.60;;;;;;5007990;28;20034;-58
2022/01/07 11:50:47;;;;;;;52.17;25.95;;;17.40;58.40;;;;;;5007068;28;20026;-53
2022/01/07 11:53:12;;;;;;;55.35;25.20;;;17.40;58.30;;;;;;5006489;28;20076;-55
2022/01/07 11:55:38;;;;;;;54.28;25.20;;;17.40;58.30;;;;;;5008486;28;20030;-58
2022/01/07 11:58:05;;;;;;;55.53;24.70;;;17.30;58.10;;;;;;5007800;28;20034;-57
2022/01/07 12:00:59;;;;;;;51.63;26.05;;;17.30;58.60;;;;;;5005052;28;20046;-52
2022/01/07 12:03:49;;;;;;;45.50;23.70;;;17.30;59.90;;;;;;5006194;28;20639;-53
2022/01/07 12:06:17;;;;;;;48.13;23.15;;;17.20;61.10;;;;;;5008589;28;20122;-57
2022/01/07 12:09:06;;;;;;;40.08;20.58;;;17.20;61.10;;;;;;5004808;28;20313;-54
2022/01/07 12:11:34;;;;;;;38.40;19.48;;;17.20;60.70;;;;;;5001931;28;20141;-56
2022/01/07 12:14:00;;;;;;;39.88;18.85;;;17.20;60.20;;;;;;5004969;28;20057;-57
2022/01/07 12:16:27;;;;;;;42.42;20.15;;;17.20;60.00;;;;;;5007343;28;20066;-53
2022/01/07 12:19:16;;;;;;;37.83;18.40;;;17.20;59.70;;;;;;5007643;28;20155;-52
2022/01/07 12:21:45;;;;;;;39.30;18.42;;;17.20;59.40;;;;;;5005456;28;20431;-57
2022/01/07 12:24:14;;;;;;;38.97;19.02;;;17.20;59.10;;;;;;5005998;28;20038;-57
2022/01/07 12:26:39;;;;;;;37.67;18.73;;;17.20;58.80;;;;;;5008148;28;20053;-54
2022/01/07 12:29:05;;;;;;;33.17;16.75;;;17.30;58.50;;;;;;5004298;28;20663;-53
2022/01/07 12:31:31;;;;;;;36.58;18.08;;;17.30;58.20;;;;;;5003225;28;20037;-54
2022/01/07 12:33:58;;;;;;;31.85;17.20;;;17.30;58.00;;;;;;4991730;28;20091;-56
2022/01/07 12:36:30;;;;;;;30.05;14.40;;;17.40;57.80;;;;;;5002569;28;20037;-55
2022/01/07 12:39:23;;;;;;;35.58;16.27;;;17.40;57.50;;;;;;4995126;28;20372;-54
2022/01/07 12:41:52;;;;;;;27.42;14.57;;;17.40;57.30;;;;;;5007584;28;21395;-58
2022/01/07 12:44:18;;;;;;;29.13;13.95;;;17.40;57.10;;;;;;5003161;28;20030;-59
2022/01/07 12:46:58;;;;;;;28.27;14.98;;;17.40;57.10;;;;;;5007678;28;20045;-56
2022/01/07 12:49:34;;;;;;;24.50;13.05;;;17.40;57.10;;;;;;5004518;28;20036;-58